Time;durP1;ratioP1;P1;durP2;ratioP2;P2;SDS_P1;SDS_P2;PMS_P1;PMS_P2;Temp;Humidity;BMP_temperature;BMP_pressure;BME280_temperature;BME280_humidity;BME280_pressure;Samples;Min_cycle;Max_cycle;Signal;HPM_P1;HPM_P2
2020/12/09 00:03:34;;;;;;;31.00;19.63;;;2.10;99.90;;;;;;10044625;29;20141;-88
2020/12/09 00:08:36;;;;;;;;;;;2.10;99.90;;;;;;10029461;29;20062;-89
2020/12/09 00:13:38;;;;;;;66.45;34.40;;;2.10;99.90;;;;;;10044026;29;20026;-88
2020/12/09 00:18:40;;;;;;;48.40;25.98;;;2.20;99.90;;;;;;10042248;29;20523;-89
2020/12/09 00:23:41;;;;;;;46.75;28.73;;;2.20;99.90;;;;;;10011752;29;20064;-89
2020/12/09 00:28:43;;;;;;;34.15;21.10;;;2.20;99.90;;;;;;10043099;29;20072;-88
2020/12/09 00:33:50;;;;;;;31.55;19.90;;;2.20;99.90;;;;;;10009089;29;20068;-88
2020/12/09 00:38:53;;;;;;;35.40;21.75;;;2.20;99.90;;;;;;10005596;29;20112;-88
2020/12/09 00:43:56;;;;;;;107.35;44.72;;;2.20;99.90;;;;;;10006199;29;20406;-88
2020/12/09 00:48:58;;;;;;;59.67;31.60;;;2.20;99.90;;;;;;10005392;29;20096;-88
2020/12/09 00:54:00;;;;;;;;;;;2.20;99.90;;;;;;9990975;29;20065;-88
2020/12/09 00:59:03;;;;;;;64.60;30.98;;;2.20;99.90;;;;;;9990126;29;20022;-89
2020/12/09 01:04:06;;;;;;;61.72;30.85;;;2.30;99.90;;;;;;9992911;29;20062;-89
2020/12/09 01:09:08;;;;;;;36.83;22.83;;;2.20;99.90;;;;;;10011721;29;20089;-88
2020/12/09 01:14:09;;;;;;;47.30;27.10;;;2.20;99.90;;;;;;10011049;29;20506;-88
2020/12/09 01:19:11;;;;;;;37.17;22.98;;;2.20;99.90;;;;;;10011012;29;20065;-89
2020/12/09 01:24:12;;;;;;;63.20;30.48;;;2.20;99.90;;;;;;9966625;29;20050;-88
2020/12/09 01:29:15;;;;;;;41.55;23.17;;;2.30;99.90;;;;;;10066090;29;20065;-88
2020/12/09 01:34:16;;;;;;;38.92;23.70;;;2.20;99.90;;;;;;10057403;29;20178;-88
2020/12/09 01:39:19;;;;;;;51.83;27.92;;;2.30;99.90;;;;;;10072031;29;20527;-88
2020/12/09 01:44:22;;;;;;;57.78;28.73;;;2.20;99.90;;;;;;10099247;29;20512;-88
2020/12/09 01:49:24;;;;;;;54.67;28.55;;;2.20;99.90;;;;;;10068910;29;20454;-88
2020/12/09 01:54:25;;;;;;;32.20;19.50;;;2.20;99.90;;;;;;10087356;29;20061;-88
2020/12/09 01:59:27;;;;;;;85.45;35.15;;;2.20;99.90;;;;;;10101811;29;20060;-88
2020/12/09 02:04:30;;;;;;;43.25;22.45;;;2.20;99.90;;;;;;10070609;29;20412;-88
2020/12/09 02:09:31;;;;;;;33.58;21.08;;;2.10;99.90;;;;;;10085211;29;20092;-88
2020/12/09 02:14:33;;;;;;;28.80;19.10;;;2.10;99.90;;;;;;10054949;29;20065;-88
2020/12/09 02:19:34;;;;;;;;;;;2.20;99.90;;;;;;10055120;29;20390;-88
2020/12/09 02:24:36;;;;;;;73.82;30.50;;;2.10;99.90;;;;;;10055459;29;19924;-88
2020/12/09 02:29:37;;;;;;;34.40;20.25;;;2.10;99.90;;;;;;10069929;29;20524;-88
2020/12/09 02:34:39;;;;;;;29.35;18.98;;;2.00;99.90;;;;;;10054886;29;20057;-88
2020/12/09 02:39:40;;;;;;;41.13;22.77;;;2.10;99.90;;;;;;10069571;29;20096;-88
2020/12/09 02:44:42;;;;;;;31.33;20.08;;;2.20;99.90;;;;;;10085257;29;20071;-88
2020/12/09 02:49:43;;;;;;;47.63;24.80;;;2.10;99.90;;;;;;10054451;29;20084;-88
2020/12/09 02:54:45;;;;;;;33.08;20.35;;;2.20;99.90;;;;;;10038881;29;20119;-88
2020/12/09 02:59:46;;;;;;;39.33;22.27;;;2.20;99.90;;;;;;10067578;29;20432;-87
2020/12/09 03:04:48;;;;;;;53.83;28.52;;;2.20;99.90;;;;;;10053560;29;20061;-88
2020/12/09 03:09:50;;;;;;;41.03;22.95;;;2.10;99.90;;;;;;10053907;29;20053;-88
2020/12/09 03:14:51;;;;;;;39.05;21.67;;;2.10;99.90;;;;;;10053427;29;20144;-88
2020/12/09 03:19:52;;;;;;;42.22;23.80;;;2.10;99.90;;;;;;10082834;29;20463;-88
2020/12/09 03:24:54;;;;;;;37.60;22.08;;;2.10;99.90;;;;;;10068129;29;20077;-88
2020/12/09 03:29:55;;;;;;;43.30;24.33;;;2.10;99.90;;;;;;10067203;29;20069;-88
2020/12/09 03:34:57;;;;;;;68.38;31.33;;;2.10;99.90;;;;;;10035906;29;20075;-88
2020/12/09 03:39:59;;;;;;;51.00;26.33;;;1.90;99.90;;;;;;10066686;29;20136;-88
2020/12/09 03:45:00;;;;;;;33.60;20.13;;;1.90;99.90;;;;;;10051319;29;20057;-88
2020/12/09 03:50:04;;;;;;;36.90;22.75;;;1.80;99.90;;;;;;10049263;29;20148;-88
2020/12/09 03:55:05;;;;;;;36.45;20.58;;;1.80;99.90;;;;;;10064497;29;20565;-88
2020/12/09 04:00:07;;;;;;;44.17;23.92;;;1.80;99.90;;;;;;10049229;29;20053;-88
2020/12/09 04:05:09;;;;;;;29.83;19.77;;;1.80;99.90;;;;;;10014199;29;20077;-88
2020/12/09 04:10:11;;;;;;;31.98;21.25;;;1.80;99.90;;;;;;10043832;29;20080;-88
2020/12/09 04:15:13;;;;;;;52.38;27.40;;;1.70;99.90;;;;;;10029074;29;20062;-88
2020/12/09 04:20:14;;;;;;;31.83;19.73;;;1.70;99.90;;;;;;10028880;29;20144;-88
2020/12/09 04:25:16;;;;;;;;;;;1.80;99.90;;;;;;10059289;29;20489;-88
2020/12/09 06:23:33;;;;;;;65.63;33.33;;;0.70;99.90;;;;;;10071645;29;20066;-95
2020/12/09 06:28:45;;;;;;;131.77;53.70;;;0.80;99.90;;;;;;9986725;29;20066;-95
2020/12/09 06:33:57;;;;;;;98.22;45.00;;;0.90;99.90;;;;;;9973003;29;20054;-95
2020/12/09 06:39:07;;;;;;;75.93;37.53;;;0.90;99.90;;;;;;9987345;29;20137;-95
2020/12/09 06:44:11;;;;;;;116.20;51.55;;;1.00;99.90;;;;;;9987392;29;20069;-95
2020/12/09 06:49:37;;;;;;;90.72;43.92;;;1.10;99.90;;;;;;9972145;29;20111;-95
2020/12/09 06:54:44;;;;;;;110.53;44.53;;;1.00;99.90;;;;;;9971954;29;20059;-95
2020/12/09 06:59:48;;;;;;;148.02;53.22;;;1.00;99.90;;;;;;9972899;29;20536;-95
2020/12/09 07:04:53;;;;;;;227.50;67.30;;;0.90;99.90;;;;;;9972214;29;20058;-96
2020/12/09 07:09:56;;;;;;;210.02;67.65;;;0.90;99.90;;;;;;9987193;29;20086;-95
2020/12/09 07:14:58;;;;;;;222.00;68.85;;;0.80;99.90;;;;;;9972370;29;20069;-96
2020/12/09 07:20:00;;;;;;;83.82;39.38;;;0.70;99.90;;;;;;9971107;29;20077;-95
2020/12/09 07:25:02;;;;;;;254.57;72.10;;;0.60;99.90;;;;;;9982963;29;20057;-96
2020/12/09 07:30:11;;;;;;;95.55;40.72;;;0.50;99.90;;;;;;10031103;29;20061;-95
2020/12/09 07:35:20;;;;;;;107.60;43.20;;;0.50;99.90;;;;;;10031570;29;20068;-95
2020/12/09 07:40:36;;;;;;;86.05;38.00;;;0.30;99.90;;;;;;10022104;29;20152;-96
2020/12/09 07:45:45;;;;;;;83.72;38.92;;;0.40;99.90;;;;;;10033030;29;20090;-96
2020/12/09 07:50:52;;;;;;;56.38;31.85;;;0.30;99.90;;;;;;10032494;29;20060;-96
2020/12/09 07:56:09;;;;;;;70.90;35.05;;;0.20;99.90;;;;;;10036376;29;20057;-95
2020/12/09 08:01:38;;;;;;;108.13;45.05;;;0.10;99.90;;;;;;10015044;29;20082;-95
2020/12/09 08:06:48;;;;;;;99.10;42.92;;;0.10;99.90;;;;;;10032252;29;20425;-96
2020/12/09 08:12:04;;;;;;;;;;;;;;;;;;;;;
2020/12/09 08:17:47;;;;;;;146.27;51.83;;;0.10;99.90;;;;;;9860719;30;20060;-95
2020/12/09 08:23:01;;;;;;;76.88;38.00;;;0.00;99.90;;;;;;9856721;30;20059;-95
2020/12/09 08:28:06;;;;;;;109.63;48.33;;;0.10;99.90;;;;;;9926097;29;20058;-96
2020/12/09 08:33:11;;;;;;;108.60;47.42;;;0.10;99.90;;;;;;9951478;29;20189;-96
2020/12/09 08:38:44;;;;;;;61.75;34.47;;;0.10;99.90;;;;;;9967129;29;20436;-95
2020/12/09 08:44:02;;;;;;;61.58;33.25;;;0.10;99.90;;;;;;9968395;29;20134;-95
2020/12/09 08:49:05;;;;;;;88.90;39.70;;;0.00;99.90;;;;;;10029721;29;20089;-95
2020/12/09 08:54:10;;;;;;;97.53;41.25;;;-0.30;99.90;;;;;;10030216;29;20081;-95
2020/12/09 08:59:12;;;;;;;68.82;36.88;;;-0.20;99.90;;;;;;10028563;29;20101;-96
2020/12/09 09:04:16;;;;;;;140.90;53.22;;;0.00;99.90;;;;;;10029060;29;20065;-95
2020/12/09 09:09:39;;;;;;;71.05;37.08;;;-0.20;99.90;;;;;;10014567;29;20561;-96
2020/12/09 09:14:41;;;;;;;79.10;38.30;;;0.00;99.90;;;;;;10029393;29;20085;-95
2020/12/09 09:19:43;;;;;;;110.38;45.35;;;-0.10;99.90;;;;;;10028623;29;20081;-96
2020/12/09 09:25:05;;;;;;;175.82;59.22;;;-0.10;99.90;;;;;;10029989;29;20480;-95
2020/12/09 09:30:22;;;;;;;84.95;39.35;;;-0.10;99.90;;;;;;10037965;29;20056;-96
2020/12/09 09:36:00;;;;;;;77.32;37.88;;;-0.10;99.90;;;;;;10050999;29;20057;-95
2020/12/09 09:41:08;;;;;;;122.22;44.63;;;0.00;99.90;;;;;;10023807;29;20065;-96
2020/12/09 09:46:10;;;;;;;118.28;49.70;;;0.10;99.90;;;;;;10035864;29;20121;-94
2020/12/09 09:51:11;;;;;;;63.80;33.50;;;0.10;99.90;;;;;;10019466;29;20095;-96
2020/12/09 09:56:13;;;;;;;;;;;0.00;99.90;;;;;;10035292;29;20068;-96
2020/12/09 10:01:15;;;;;;;88.97;34.47;;;-0.10;99.90;;;;;;10034456;29;19955;-95
2020/12/09 10:06:16;;;;;;;72.53;35.85;;;-0.20;99.90;;;;;;10034756;29;20413;-96
2020/12/09 10:11:18;;;;;;;72.93;34.60;;;-0.30;99.90;;;;;;10034065;29;20064;-95
2020/12/09 10:16:24;;;;;;;61.17;31.70;;;-0.20;99.90;;;;;;10049167;29;20061;-96
2020/12/09 10:21:31;;;;;;;75.97;33.83;;;-0.30;99.90;;;;;;10021831;29;20068;-96
2020/12/09 10:26:35;;;;;;;82.28;36.25;;;0.00;99.90;;;;;;10033723;29;20069;-96
2020/12/09 10:31:46;;;;;;;98.55;37.70;;;0.20;99.90;;;;;;10050891;29;20088;-96
2020/12/09 10:36:52;;;;;;;72.13;33.20;;;-0.10;99.90;;;;;;10033373;29;20065;-96
2020/12/09 10:41:53;;;;;;;93.90;39.10;;;0.10;99.90;;;;;;10047548;23;20494;-92
2020/12/09 10:46:55;;;;;;;90.45;38.03;;;0.10;99.90;;;;;;10016638;29;20540;-95
2020/12/09 10:51:56;;;;;;;;;;;0.10;99.90;;;;;;10018083;29;20065;-93
2020/12/09 10:57:04;;;;;;;107.47;42.75;;;0.10;99.90;;;;;;10047429;29;19956;-93
2020/12/09 11:02:05;;;;;;;148.95;49.92;;;0.20;99.90;;;;;;10048114;29;20061;-92
2020/12/09 11:07:10;;;;;;;115.68;46.17;;;0.30;99.90;;;;;;10002364;29;20136;-94
2020/12/09 11:12:12;;;;;;;95.30;41.70;;;0.30;99.90;;;;;;10031925;29;20053;-94
2020/12/09 11:17:13;;;;;;;111.30;45.15;;;0.50;99.90;;;;;;10001414;29;20488;-93
2020/12/09 11:22:14;;;;;;;156.23;53.88;;;0.50;99.90;;;;;;10044401;29;20414;-93
2020/12/09 11:27:16;;;;;;;108.85;44.40;;;0.70;99.90;;;;;;10017751;29;20153;-93
2020/12/09 11:32:18;;;;;;;;;;;0.60;99.90;;;;;;10046841;29;20065;-94
2020/12/09 11:37:19;;;;;;;143.70;56.88;;;0.50;99.90;;;;;;10019580;29;19936;-93
2020/12/09 11:42:21;;;;;;;123.45;49.00;;;0.60;99.90;;;;;;9990539;29;20062;-94
2020/12/09 11:47:22;;;;;;;126.32;51.92;;;0.70;99.90;;;;;;9992649;29;20421;-94
2020/12/09 11:52:24;;;;;;;117.85;51.20;;;0.50;99.90;;;;;;9992916;29;20068;-93
2020/12/09 11:57:25;;;;;;;116.97;45.30;;;0.50;99.90;;;;;;9992047;29;20057;-92
2020/12/09 12:02:27;;;;;;;115.43;51.78;;;0.60;99.90;;;;;;9992122;29;20145;-92
2020/12/09 12:07:28;;;;;;;110.70;49.22;;;0.70;99.90;;;;;;9983333;29;20057;-93
2020/12/09 12:12:31;;;;;;;114.00;48.45;;;0.70;99.90;;;;;;9985326;29;20064;-93
2020/12/09 12:17:33;;;;;;;107.13;48.70;;;0.80;99.90;;;;;;9991633;29;20054;-96
2020/12/09 12:22:34;;;;;;;105.80;44.25;;;0.70;99.90;;;;;;9977646;29;20049;-93
2020/12/09 12:27:36;;;;;;;102.50;47.83;;;0.80;99.90;;;;;;9991727;29;20406;-94
2020/12/09 12:32:41;;;;;;;107.07;47.95;;;1.00;99.90;;;;;;9992051;29;20089;-94
2020/12/09 12:37:42;;;;;;;99.07;43.90;;;1.00;99.90;;;;;;10022061;29;20061;-94
2020/12/09 12:42:44;;;;;;;88.68;43.38;;;0.90;99.90;;;;;;9991498;29;20141;-93
2020/12/09 12:47:46;;;;;;;91.70;44.13;;;0.90;99.90;;;;;;9991686;29;20068;-96
2020/12/09 12:52:47;;;;;;;79.60;40.28;;;0.90;99.90;;;;;;10012361;29;20092;-95
2020/12/09 12:57:49;;;;;;;78.45;38.35;;;1.00;99.90;;;;;;10052085;29;20132;-95
2020/12/09 13:02:50;;;;;;;75.80;36.25;;;1.00;99.90;;;;;;10088913;29;20139;-94
2020/12/09 13:07:53;;;;;;;73.15;37.35;;;1.10;99.90;;;;;;10059591;29;20067;-96
2020/12/09 13:12:54;;;;;;;62.45;37.20;;;1.10;99.90;;;;;;10074402;29;20125;-94
2020/12/09 13:17:56;;;;;;;67.60;39.28;;;1.00;99.90;;;;;;10088463;29;20126;-94
2020/12/09 13:22:57;;;;;;;73.00;38.30;;;1.10;99.90;;;;;;10059045;29;20076;-95
2020/12/09 13:27:59;;;;;;;74.72;39.15;;;1.10;99.90;;;;;;10058698;29;20573;-94
2020/12/09 13:33:03;;;;;;;70.53;35.72;;;1.20;99.90;;;;;;10059036;29;20412;-94
2020/12/09 13:38:05;;;;;;;69.57;38.25;;;1.20;99.90;;;;;;10057925;29;20389;-93
2020/12/09 13:43:07;;;;;;;74.40;38.95;;;1.20;99.90;;;;;;10058448;29;20485;-92
2020/12/09 13:48:08;;;;;;;87.65;42.55;;;1.10;99.90;;;;;;10053560;29;20077;-92
2020/12/09 13:53:10;;;;;;;72.97;37.60;;;1.20;99.90;;;;;;10012809;29;20520;-93
2020/12/09 13:58:32;;;;;;;72.50;37.50;;;1.10;99.90;;;;;;10066773;29;20057;-93
2020/12/09 14:03:33;;;;;;;68.53;38.05;;;1.00;99.90;;;;;;10042010;29;20516;-93
2020/12/09 14:08:35;;;;;;;66.03;33.13;;;1.10;99.90;;;;;;10066053;29;20058;-93
2020/12/09 14:13:37;;;;;;;61.08;34.33;;;1.10;99.90;;;;;;10035174;29;20141;-93
2020/12/09 14:18:39;;;;;;;67.97;35.78;;;1.20;99.90;;;;;;10048894;29;20125;-95
2020/12/09 14:23:42;;;;;;;62.10;31.88;;;1.20;99.90;;;;;;10019404;29;20088;-95
2020/12/09 14:28:44;;;;;;;;;;;1.30;99.90;;;;;;10019358;29;20069;-94
2020/12/09 14:33:46;;;;;;;61.53;32.67;;;1.20;99.90;;;;;;10033784;29;19934;-94
2020/12/09 14:38:47;;;;;;;58.38;31.73;;;1.20;99.90;;;;;;10018232;29;20062;-95
2020/12/09 14:43:53;;;;;;;58.67;31.30;;;1.30;99.90;;;;;;10032358;29;20057;-93
2020/12/09 14:48:55;;;;;;;61.40;32.58;;;1.30;99.90;;;;;;10015221;29;20062;-93
2020/12/09 14:53:57;;;;;;;58.80;31.83;;;1.30;99.90;;;;;;9979566;29;20065;-92
2020/12/09 14:58:58;;;;;;;60.25;32.72;;;1.30;99.90;;;;;;9993333;29;20529;-93
2020/12/09 15:04:00;;;;;;;63.97;32.50;;;1.30;99.90;;;;;;9979674;29;20114;-94
2020/12/09 15:09:02;;;;;;;67.35;35.75;;;1.30;99.90;;;;;;9979053;29;20225;-94
2020/12/09 15:14:03;;;;;;;63.88;35.75;;;1.30;99.90;;;;;;9994259;29;20062;-93
2020/12/09 15:19:05;;;;;;;64.50;33.92;;;1.40;99.90;;;;;;9979335;29;20060;-93
2020/12/09 15:24:11;;;;;;;66.03;32.55;;;1.30;99.90;;;;;;9979528;29;20058;-94
2020/12/09 15:29:12;;;;;;;87.32;44.03;;;1.40;99.90;;;;;;9965862;29;20062;-94
2020/12/09 15:34:14;;;;;;;68.22;36.75;;;1.40;99.90;;;;;;9978798;29;20062;-94
2020/12/09 15:39:16;;;;;;;;;;;1.40;99.90;;;;;;9993476;29;20145;-93
2020/12/09 15:44:17;;;;;;;69.47;38.45;;;1.40;99.90;;;;;;9977704;29;19925;-94
2020/12/09 15:49:19;;;;;;;81.03;42.22;;;1.40;99.90;;;;;;9978798;29;20498;-94
2020/12/09 15:54:20;;;;;;;65.22;35.53;;;1.40;99.90;;;;;;9998594;29;20477;-94
2020/12/09 15:59:21;;;;;;;80.68;42.40;;;1.40;99.90;;;;;;10009663;29;20142;-94
2020/12/09 16:04:23;;;;;;;79.53;38.70;;;1.40;99.90;;;;;;10033178;29;20058;-94
2020/12/09 16:09:25;;;;;;;75.68;38.65;;;1.40;99.90;;;;;;9987777;29;20054;-94
2020/12/09 16:14:26;;;;;;;62.63;34.95;;;1.40;99.90;;;;;;9977671;29;20066;-93
2020/12/09 16:19:28;;;;;;;66.13;34.53;;;1.30;99.90;;;;;;9976840;29;20068;-93
2020/12/09 16:24:29;;;;;;;62.45;34.70;;;1.40;99.90;;;;;;9991670;29;20065;-94
2020/12/09 16:29:31;;;;;;;79.22;39.95;;;1.30;99.90;;;;;;9983218;29;20510;-94
2020/12/09 16:34:32;;;;;;;72.60;38.28;;;1.30;99.90;;;;;;10045776;29;20080;-94
2020/12/09 16:39:35;;;;;;;63.78;34.15;;;1.30;99.90;;;;;;10037494;29;20069;-93
2020/12/09 16:44:38;;;;;;;72.70;37.38;;;1.40;99.90;;;;;;9994377;23;20459;-92
2020/12/09 16:49:49;;;;;;;;;;;1.30;99.90;;;;;;9963322;29;20054;-92
2020/12/09 16:54:51;;;;;;;69.72;36.20;;;1.30;99.90;;;;;;9958886;29;19931;-92
2020/12/09 16:59:54;;;;;;;68.32;33.65;;;1.30;99.90;;;;;;9959241;29;20141;-91
2020/12/09 17:04:55;;;;;;;71.30;36.65;;;1.30;99.90;;;;;;9958887;29;20142;-91
2020/12/09 17:09:57;;;;;;;71.75;36.10;;;1.30;99.90;;;;;;9945824;29;20541;-91
2020/12/09 17:14:59;;;;;;;;;;;1.20;99.90;;;;;;9924458;29;20494;-92
2020/12/09 17:20:00;;;;;;;57.50;32.35;;;1.00;99.90;;;;;;9935995;29;19933;-92
2020/12/09 17:25:03;;;;;;;55.05;29.92;;;0.90;99.90;;;;;;9921300;29;20131;-92
2020/12/09 17:30:05;;;;;;;59.15;32.03;;;0.90;99.90;;;;;;9970929;29;20062;-92
2020/12/09 17:35:06;;;;;;;;;;;0.80;99.90;;;;;;9921465;29;20099;-92
2020/12/09 17:40:08;;;;;;;69.53;35.78;;;0.90;99.90;;;;;;9935576;29;19937;-92
2020/12/09 17:45:09;;;;;;;59.13;31.58;;;0.90;99.90;;;;;;9919942;29;20051;-91
2020/12/09 17:50:11;;;;;;;53.80;30.65;;;0.90;99.90;;;;;;9949787;29;20062;-92
2020/12/09 17:55:12;;;;;;;59.40;33.90;;;0.90;99.90;;;;;;9972414;29;20532;-92
2020/12/09 18:00:14;;;;;;;65.57;33.55;;;0.90;99.90;;;;;;9957487;29;20495;-92
2020/12/09 18:05:20;;;;;;;72.88;36.20;;;1.00;99.90;;;;;;9958024;29;20057;-92
2020/12/09 18:10:21;;;;;;;90.57;42.35;;;1.00;99.90;;;;;;9957500;29;20066;-91
2020/12/09 18:15:23;;;;;;;77.80;39.05;;;1.10;99.90;;;;;;9987062;29;20146;-92
2020/12/09 18:20:25;;;;;;;60.72;34.22;;;1.20;99.90;;;;;;9921145;29;20074;-92
2020/12/09 18:25:29;;;;;;;77.63;36.83;;;1.30;99.90;;;;;;9949542;29;20082;-91
2020/12/09 18:30:31;;;;;;;76.40;35.30;;;1.40;99.90;;;;;;9919309;29;20067;-92
2020/12/09 18:35:32;;;;;;;81.18;36.80;;;1.50;99.90;;;;;;9933710;29;20605;-93
2020/12/09 18:40:34;;;;;;;66.60;34.28;;;1.50;99.90;;;;;;9953233;29;20054;-92
2020/12/09 18:45:36;;;;;;;65.60;34.10;;;1.50;99.90;;;;;;9970523;29;20058;-92
2020/12/09 18:50:39;;;;;;;66.80;34.50;;;1.50;99.90;;;;;;9971027;29;20099;-93
2020/12/09 18:55:41;;;;;;;65.35;31.05;;;1.50;99.90;;;;;;9970315;29;20141;-92
2020/12/09 19:00:42;;;;;;;;;;;1.50;99.90;;;;;;9946181;29;20111;-93
2020/12/09 19:05:44;;;;;;;62.78;29.50;;;1.50;99.90;;;;;;9979340;29;20344;-92
2020/12/09 19:10:45;;;;;;;60.83;31.05;;;1.50;99.90;;;;;;9964433;29;20426;-93
2020/12/09 19:15:54;;;;;;;52.55;27.58;;;1.60;99.90;;;;;;9963144;29;20063;-92
2020/12/09 19:20:55;;;;;;;;;;;1.60;99.90;;;;;;9956507;29;20062;-93
2020/12/09 19:25:57;;;;;;;72.95;32.83;;;1.60;99.90;;;;;;9954441;29;20012;-93
2020/12/09 19:31:00;;;;;;;;;;;1.60;99.90;;;;;;9968405;29;20091;-93
2020/12/09 19:36:02;;;;;;;60.85;30.02;;;1.70;99.90;;;;;;9963937;29;19925;-92
2020/12/09 19:41:03;;;;;;;79.43;34.38;;;1.70;99.90;;;;;;9964131;29;20066;-92
2020/12/09 19:46:05;;;;;;;70.50;32.88;;;1.70;99.90;;;;;;9963384;29;20063;-92
2020/12/09 19:51:07;;;;;;;86.20;36.25;;;1.70;99.90;;;;;;9948542;29;20062;-93
2020/12/09 19:56:10;;;;;;;72.95;32.78;;;1.70;99.90;;;;;;9978059;29;20066;-92
2020/12/09 20:01:12;;;;;;;95.90;39.13;;;1.70;99.90;;;;;;9962344;29;20070;-92
2020/12/09 20:06:28;;;;;;;84.38;39.17;;;1.70;99.90;;;;;;9947926;29;20054;-93
2020/12/09 20:11:30;;;;;;;74.40;34.03;;;1.70;99.90;;;;;;9962324;29;20076;-93
2020/12/09 20:16:34;;;;;;;70.70;34.38;;;1.70;99.90;;;;;;9911187;29;20067;-92
2020/12/09 20:21:39;;;;;;;69.68;32.05;;;1.70;99.90;;;;;;9925325;29;20062;-93
2020/12/09 20:26:40;;;;;;;57.35;29.20;;;1.70;99.90;;;;;;9931154;29;20526;-92
2020/12/09 20:31:42;;;;;;;66.13;31.55;;;1.70;99.90;;;;;;9947068;29;20529;-93
2020/12/09 20:36:43;;;;;;;62.65;30.85;;;1.70;99.90;;;;;;9962071;29;20058;-93
2020/12/09 20:41:45;;;;;;;63.92;29.58;;;1.70;99.90;;;;;;9962583;29;20150;-92
2020/12/09 20:46:46;;;;;;;56.35;29.80;;;1.70;99.90;;;;;;9962411;29;20070;-92
2020/12/09 20:51:48;;;;;;;;;;;1.70;99.90;;;;;;9947958;29;20066;-92
2020/12/09 20:56:50;;;;;;;57.53;27.95;;;1.70;99.90;;;;;;9970603;29;19928;-92
2020/12/09 21:01:51;;;;;;;54.70;28.00;;;1.70;99.90;;;;;;9928383;29;20158;-93
2020/12/09 21:06:53;;;;;;;;;;;1.70;99.90;;;;;;9906008;29;20123;-92
2020/12/09 21:11:54;;;;;;;63.65;31.17;;;1.70;99.90;;;;;;9911924;29;19929;-91
2020/12/09 21:16:56;;;;;;;52.28;27.13;;;1.70;99.90;;;;;;9910272;29;20063;-93
2020/12/09 21:21:58;;;;;;;51.25;26.48;;;1.70;99.90;;;;;;9928125;29;20109;-92
2020/12/09 21:26:59;;;;;;;48.58;24.40;;;1.70;99.90;;;;;;9946008;29;20090;-93
2020/12/09 21:32:01;;;;;;;41.88;22.83;;;1.70;99.90;;;;;;9931151;29;20073;-93
2020/12/09 21:37:03;;;;;;;45.78;25.15;;;1.70;99.90;;;;;;9925941;29;20066;-93
2020/12/09 21:42:21;;;;;;;54.35;25.05;;;1.80;99.90;;;;;;9883236;30;20529;-93
2020/12/09 21:47:22;;;;;;;50.00;26.60;;;1.80;99.90;;;;;;9863992;30;20077;-93
2020/12/09 21:52:24;;;;;;;46.85;24.90;;;1.80;99.90;;;;;;9879903;30;20078;-92
2020/12/09 21:57:26;;;;;;;51.33;26.52;;;1.70;99.90;;;;;;9906699;29;20082;-93
2020/12/09 22:02:27;;;;;;;58.63;27.02;;;1.70;99.90;;;;;;9933451;29;20058;-91
2020/12/09 22:07:29;;;;;;;46.63;24.98;;;1.70;99.90;;;;;;9937895;29;20594;-92
2020/12/09 22:12:32;;;;;;;46.65;24.55;;;1.80;99.90;;;;;;9923172;29;20145;-93
2020/12/09 22:17:40;;;;;;;45.15;24.85;;;1.80;99.90;;;;;;9939111;29;20425;-92
2020/12/09 22:22:42;;;;;;;54.22;25.83;;;1.80;99.90;;;;;;9920042;29;20069;-92
2020/12/09 22:27:43;;;;;;;46.63;23.75;;;1.80;99.90;;;;;;9905308;29;20063;-92
2020/12/09 22:32:45;;;;;;;48.15;24.33;;;1.90;99.90;;;;;;9918971;29;20151;-92
2020/12/09 22:37:47;;;;;;;42.85;23.25;;;1.90;99.90;;;;;;9933974;29;20539;-92
2020/12/09 22:42:48;;;;;;;43.85;22.42;;;1.90;99.90;;;;;;9972344;24;20422;-93
2020/12/09 22:47:51;;;;;;;46.20;23.88;;;1.90;99.90;;;;;;9967719;29;20058;-92
2020/12/09 22:53:07;;;;;;;41.45;22.20;;;2.00;99.90;;;;;;10024188;29;20520;-92
2020/12/09 22:58:08;;;;;;;39.22;20.98;;;2.00;99.90;;;;;;9994038;29;20101;-92
2020/12/09 23:03:11;;;;;;;38.55;20.67;;;2.00;99.90;;;;;;9993160;29;20058;-92
2020/12/09 23:08:12;;;;;;;34.97;20.45;;;2.00;99.90;;;;;;10030689;29;20067;-92
2020/12/09 23:13:14;;;;;;;39.80;21.52;;;2.00;99.90;;;;;;9965690;29;20062;-92
2020/12/09 23:18:16;;;;;;;34.05;19.98;;;1.90;99.90;;;;;;10001587;29;20058;-92
2020/12/09 23:23:17;;;;;;;40.72;21.77;;;1.80;99.90;;;;;;9986881;29;20414;-92
2020/12/09 23:28:19;;;;;;;37.38;20.27;;;1.70;99.90;;;;;;10001337;29;20062;-92
2020/12/09 23:33:20;;;;;;;39.90;21.92;;;1.50;99.90;;;;;;10006742;29;20062;-92
2020/12/09 23:38:24;;;;;;;34.88;20.05;;;1.40;99.90;;;;;;10028957;29;20053;-92
2020/12/09 23:43:26;;;;;;;39.10;21.58;;;1.30;99.90;;;;;;10030555;29;20063;-91
2020/12/09 23:48:27;;;;;;;44.85;23.10;;;1.20;99.90;;;;;;10015701;29;20065;-92
2020/12/09 23:53:29;;;;;;;45.50;24.08;;;1.10;99.90;;;;;;10001182;29;20065;-93
2020/12/09 23:58:30;;;;;;;37.55;20.45;;;1.00;99.90;;;;;;9947743;29;20054;-92
